Time;durP1;ratioP1;P1;durP2;ratioP2;P2;SDS_P1;SDS_P2;PMS_P1;PMS_P2;Temp;Humidity;BMP_temperature;BMP_pressure;BME280_temperature;BME280_humidity;BME280_pressure;Samples;Min_cycle;Max_cycle;Signal;HPM_P1;HPM_P2
2021/10/26 00:02:05;;;;;;;15.33;11.90;;;6.10;99.90;;;;;;5049654;28;20470;-65
2021/10/26 00:04:32;;;;;;;12.60;11.03;;;6.10;99.90;;;;;;5049741;28;20478;-65
2021/10/26 00:06:58;;;;;;;13.27;11.87;;;6.00;99.90;;;;;;5049446;28;20480;-66
2021/10/26 00:09:27;;;;;;;16.90;11.80;;;5.90;99.90;;;;;;5049579;28;20440;-66
2021/10/26 00:11:53;;;;;;;13.80;11.50;;;5.90;99.90;;;;;;5049942;28;20443;-66
2021/10/26 00:14:21;;;;;;;16.07;11.33;;;5.90;99.90;;;;;;5054250;28;20466;-66
2021/10/26 00:16:48;;;;;;;19.70;11.37;;;6.00;99.90;;;;;;5053459;28;21042;-66
2021/10/26 00:19:15;;;;;;;12.93;11.20;;;6.00;99.90;;;;;;5053941;28;20443;-66
2021/10/26 00:21:43;;;;;;;14.23;10.37;;;6.10;99.90;;;;;;5053783;28;20448;-66
2021/10/26 00:24:10;;;;;;;22.67;11.60;;;6.10;99.90;;;;;;5053501;28;20501;-66
2021/10/26 00:26:38;;;;;;;15.67;12.20;;;6.20;99.90;;;;;;5053618;28;20484;-66
2021/10/26 00:29:05;;;;;;;16.07;12.20;;;6.30;99.90;;;;;;5053587;28;20479;-65
2021/10/26 00:31:33;;;;;;;13.40;11.47;;;6.40;99.90;;;;;;5053700;28;20431;-66
2021/10/26 00:34:00;;;;;;;14.10;12.27;;;6.40;99.90;;;;;;5053056;28;20447;-66
2021/10/26 00:36:27;;;;;;;16.10;12.70;;;6.50;99.90;;;;;;5053240;28;20444;-66
2021/10/26 00:38:54;;;;;;;15.87;11.67;;;6.70;99.90;;;;;;5053140;28;20490;-66
2021/10/26 00:41:21;;;;;;;13.03;11.47;;;6.80;99.90;;;;;;5053325;28;20443;-66
2021/10/26 00:43:50;;;;;;;13.27;11.70;;;6.90;99.90;;;;;;5052921;28;20443;-66
2021/10/26 00:46:28;;;;;;;14.23;12.47;;;7.00;99.90;;;;;;5052536;28;20475;-66
2021/10/26 00:48:55;;;;;;;16.27;13.23;;;7.10;99.90;;;;;;5052996;28;20448;-66
2021/10/26 00:51:22;;;;;;;15.60;12.27;;;7.20;99.90;;;;;;5053259;28;20450;-66
2021/10/26 00:53:49;;;;;;;16.17;12.70;;;7.30;99.90;;;;;;5053125;28;20447;-66
2021/10/26 00:56:16;;;;;;;13.23;11.83;;;7.40;99.90;;;;;;5052617;28;20467;-66
2021/10/26 00:58:43;;;;;;;14.97;12.50;;;7.50;99.90;;;;;;5052825;28;20452;-65
2021/10/26 01:01:11;;;;;;;15.67;12.00;;;7.60;99.90;;;;;;5052506;28;20447;-66
2021/10/26 01:03:38;;;;;;;14.87;12.33;;;7.60;99.90;;;;;;5053207;28;20448;-66
2021/10/26 01:06:05;;;;;;;20.27;13.87;;;7.70;99.90;;;;;;5052646;28;21266;-66
2021/10/26 01:08:33;;;;;;;20.77;12.83;;;7.80;99.90;;;;;;5052751;28;20451;-66
2021/10/26 01:11:00;;;;;;;14.20;12.10;;;7.80;99.90;;;;;;5052661;28;20454;-66
2021/10/26 01:13:28;;;;;;;15.33;11.53;;;7.90;99.90;;;;;;5053142;28;20456;-66
2021/10/26 01:15:56;;;;;;;12.90;10.10;;;7.90;99.90;;;;;;5052591;28;20459;-66
2021/10/26 01:18:25;;;;;;;13.63;10.50;;;8.00;99.90;;;;;;5052965;28;20452;-66
2021/10/26 01:20:54;;;;;;;13.43;10.40;;;7.90;99.90;;;;;;5052986;28;20458;-66
2021/10/26 01:23:22;;;;;;;12.00;10.50;;;7.90;99.90;;;;;;5052895;28;20443;-66
2021/10/26 01:25:49;;;;;;;11.77;10.63;;;7.90;99.90;;;;;;5052651;28;21313;-66
2021/10/26 01:28:17;;;;;;;14.63;9.90;;;7.90;99.90;;;;;;5052582;28;20505;-66
2021/10/26 01:30:44;;;;;;;16.53;11.53;;;7.90;99.90;;;;;;5052730;28;20443;-66
2021/10/26 01:33:11;;;;;;;11.80;10.60;;;7.80;99.90;;;;;;5052339;28;20452;-66
2021/10/26 01:35:38;;;;;;;10.80;9.70;;;7.90;99.90;;;;;;5051609;28;20472;-66
2021/10/26 01:38:07;;;;;;;14.03;11.73;;;8.00;99.90;;;;;;5051865;28;20927;-66
2021/10/26 01:40:35;;;;;;;12.17;9.10;;;8.00;99.90;;;;;;5052741;28;20957;-66
2021/10/26 01:43:02;;;;;;;11.60;9.60;;;8.00;99.90;;;;;;5052010;28;20449;-66
2021/10/26 01:45:29;;;;;;;12.03;10.13;;;8.00;99.90;;;;;;5052671;28;20498;-66
2021/10/26 01:47:56;;;;;;;13.67;9.87;;;8.10;99.90;;;;;;5051880;28;20448;-65
2021/10/26 01:50:23;;;;;;;12.60;9.80;;;8.00;99.90;;;;;;5052287;28;20455;-66
2021/10/26 01:52:50;;;;;;;10.47;9.30;;;8.10;99.90;;;;;;5052200;28;20986;-66
2021/10/26 01:55:19;;;;;;;10.40;9.30;;;8.10;99.90;;;;;;5051918;28;20471;-66
2021/10/26 01:57:46;;;;;;;10.93;9.83;;;8.20;99.90;;;;;;5051698;28;20487;-66
2021/10/26 02:00:14;;;;;;;10.00;9.00;;;8.10;99.90;;;;;;5051770;28;20444;-66
2021/10/26 02:02:41;;;;;;;12.60;10.20;;;8.10;99.90;;;;;;5052010;28;20440;-66
2021/10/26 02:05:09;;;;;;;11.23;9.53;;;8.20;99.90;;;;;;5051556;28;20471;-66
2021/10/26 02:07:36;;;;;;;12.33;10.73;;;8.20;99.90;;;;;;5051338;28;20480;-66
2021/10/26 02:10:03;;;;;;;12.13;9.60;;;8.30;99.90;;;;;;5051470;28;20527;-66
2021/10/26 02:12:31;;;;;;;12.13;9.87;;;8.30;99.90;;;;;;5051428;28;20490;-66
2021/10/26 02:14:58;;;;;;;12.03;9.37;;;8.20;99.90;;;;;;5051411;28;20471;-66
2021/10/26 02:17:25;;;;;;;11.00;9.53;;;8.20;99.90;;;;;;5051479;28;20456;-66
2021/10/26 02:19:52;;;;;;;11.47;10.13;;;8.10;99.90;;;;;;5051404;28;20450;-66
2021/10/26 02:22:19;;;;;;;12.37;9.73;;;8.00;99.90;;;;;;5051378;28;20444;-66
2021/10/26 02:24:46;;;;;;;13.50;10.77;;;8.00;99.90;;;;;;5051237;28;20468;-65
2021/10/26 02:27:14;;;;;;;12.00;10.50;;;8.00;99.90;;;;;;5050776;28;20479;-66
2021/10/26 02:29:42;;;;;;;13.33;11.10;;;8.10;99.90;;;;;;5051303;28;20448;-65
2021/10/26 02:32:09;;;;;;;17.70;13.37;;;8.10;99.90;;;;;;5051260;28;20444;-66
2021/10/26 02:34:36;;;;;;;12.43;11.10;;;8.10;99.90;;;;;;5050550;28;21017;-65
2021/10/26 02:37:03;;;;;;;13.20;11.67;;;8.20;99.90;;;;;;5050180;28;20948;-66
2021/10/26 02:39:30;;;;;;;12.13;10.90;;;8.10;99.90;;;;;;5050840;28;20454;-65
2021/10/26 02:41:57;;;;;;;14.87;12.90;;;8.10;99.90;;;;;;5050883;28;20493;-66
2021/10/26 02:44:24;;;;;;;18.07;14.47;;;8.10;99.90;;;;;;5050924;28;20456;-66
2021/10/26 02:46:52;;;;;;;17.27;13.00;;;8.10;99.90;;;;;;5050218;28;20570;-66
2021/10/26 02:49:19;;;;;;;14.90;12.53;;;8.10;99.90;;;;;;5050687;28;20785;-65
2021/10/26 02:51:46;;;;;;;20.83;13.93;;;8.20;99.90;;;;;;5050765;28;20444;-66
2021/10/26 02:54:12;;;;;;;15.90;12.53;;;8.20;99.90;;;;;;5050424;28;20454;-65
2021/10/26 02:56:40;;;;;;;20.63;13.33;;;8.20;99.90;;;;;;5050738;28;21166;-65
2021/10/26 02:59:07;;;;;;;13.47;12.17;;;8.10;99.90;;;;;;5050888;28;20953;-66
2021/10/26 03:01:33;;;;;;;18.97;14.87;;;8.10;99.90;;;;;;5050895;28;20479;-66
2021/10/26 03:04:02;;;;;;;14.20;12.70;;;8.10;99.90;;;;;;5050297;28;20836;-66
2021/10/26 03:06:28;;;;;;;16.97;13.67;;;8.10;99.90;;;;;;5050091;28;20472;-65
2021/10/26 03:08:55;;;;;;;16.43;13.70;;;8.10;99.90;;;;;;5050248;28;20444;-65
2021/10/26 03:11:22;;;;;;;13.30;11.77;;;8.10;99.90;;;;;;5050686;28;20454;-66
2021/10/26 03:13:49;;;;;;;15.63;12.23;;;8.10;99.90;;;;;;5050243;28;20458;-66
2021/10/26 03:16:16;;;;;;;14.53;12.97;;;8.10;99.90;;;;;;5050184;28;20462;-66
2021/10/26 03:18:43;;;;;;;17.90;13.90;;;8.10;99.90;;;;;;5050565;28;20526;-66
2021/10/26 03:21:11;;;;;;;20.27;15.60;;;8.10;99.90;;;;;;5050037;28;20459;-66
2021/10/26 03:23:38;;;;;;;22.20;16.80;;;8.00;99.90;;;;;;5050532;28;20431;-66
2021/10/26 03:26:04;;;;;;;22.87;16.50;;;8.00;99.90;;;;;;5050048;28;20464;-66
2021/10/26 03:28:31;;;;;;;18.93;15.57;;;8.00;99.90;;;;;;5050204;28;20515;-65
2021/10/26 03:31:01;;;;;;;20.90;18.70;;;8.10;99.90;;;;;;5050326;28;20440;-67
2021/10/26 03:33:28;;;;;;;21.50;17.53;;;8.10;99.90;;;;;;5050213;28;20436;-66
2021/10/26 03:35:55;;;;;;;21.03;17.47;;;8.10;99.90;;;;;;5050470;28;20468;-66
2021/10/26 03:38:23;;;;;;;18.90;16.87;;;8.20;99.90;;;;;;5050012;28;21032;-66
2021/10/26 03:40:50;;;;;;;22.67;18.10;;;8.30;99.90;;;;;;5050063;28;20452;-66
2021/10/26 03:43:17;;;;;;;19.03;16.50;;;8.30;99.90;;;;;;5050243;28;20451;-66
2021/10/26 03:45:44;;;;;;;21.77;16.80;;;8.30;99.90;;;;;;5050151;28;20467;-66
2021/10/26 03:48:11;;;;;;;21.80;16.90;;;8.40;99.90;;;;;;5048564;28;20480;-66
2021/10/26 03:50:37;;;;;;;18.80;15.87;;;8.30;99.90;;;;;;5050306;28;20451;-66
2021/10/26 03:53:04;;;;;;;22.97;17.60;;;8.40;99.90;;;;;;5050194;28;20448;-65
2021/10/26 03:55:32;;;;;;;21.47;16.50;;;8.40;99.90;;;;;;5050413;28;20551;-66
2021/10/26 03:57:59;;;;;;;20.43;17.60;;;8.40;99.90;;;;;;5049804;28;20443;-66
2021/10/26 04:00:26;;;;;;;21.47;17.43;;;8.50;99.90;;;;;;5050238;28;20452;-66
2021/10/26 04:02:53;;;;;;;21.67;16.20;;;8.50;99.90;;;;;;5049956;28;20450;-66
2021/10/26 04:05:23;;;;;;;20.20;16.13;;;8.50;99.90;;;;;;5050363;28;20468;-66
2021/10/26 04:07:56;;;;;;;19.20;15.30;;;8.40;99.90;;;;;;5049468;28;20868;-66
2021/10/26 04:10:34;;;;;;;16.77;15.10;;;8.40;99.90;;;;;;5050246;28;20444;-66
2021/10/26 04:13:03;;;;;;;22.37;16.20;;;8.40;99.90;;;;;;5049737;28;20991;-66
2021/10/26 04:15:31;;;;;;;14.13;12.57;;;8.40;99.90;;;;;;5050084;28;20499;-65
2021/10/26 04:17:58;;;;;;;14.73;12.97;;;8.40;99.90;;;;;;5049704;28;20497;-65
2021/10/26 04:20:25;;;;;;;13.93;11.50;;;8.40;99.90;;;;;;5049396;28;20452;-65
2021/10/26 04:22:52;;;;;;;13.00;11.43;;;8.40;99.90;;;;;;5049801;28;20444;-65
2021/10/26 04:25:19;;;;;;;16.00;14.40;;;8.40;99.90;;;;;;5049550;28;20463;-65
2021/10/26 04:27:45;;;;;;;17.87;15.03;;;8.40;99.90;;;;;;5049094;28;20484;-65
2021/10/26 04:30:14;;;;;;;17.20;15.40;;;8.40;99.90;;;;;;5049673;28;20535;-65
2021/10/26 04:32:41;;;;;;;17.87;15.33;;;8.30;99.90;;;;;;5049815;28;20450;-66
2021/10/26 04:35:09;;;;;;;15.17;13.60;;;8.40;99.90;;;;;;5048996;28;20530;-65
2021/10/26 04:37:36;;;;;;;18.60;14.30;;;8.40;99.90;;;;;;5049358;28;20444;-66
2021/10/26 04:40:03;;;;;;;18.57;14.53;;;8.40;99.90;;;;;;5044611;28;20453;-67
2021/10/26 04:42:32;;;;;;;16.47;14.77;;;8.40;99.90;;;;;;5048681;28;20570;-68
2021/10/26 04:44:59;;;;;;;17.53;15.40;;;8.40;99.90;;;;;;5048987;28;20506;-72
2021/10/26 04:47:27;;;;;;;19.07;15.47;;;8.30;99.90;;;;;;5048197;28;20486;-66
2021/10/26 04:49:54;;;;;;;20.53;15.87;;;8.30;99.90;;;;;;5048727;28;20448;-64
2021/10/26 04:52:21;;;;;;;18.80;15.83;;;8.40;99.90;;;;;;5048255;28;20448;-65
2021/10/26 04:54:48;;;;;;;23.30;15.13;;;8.40;99.90;;;;;;5048399;28;20575;-64
2021/10/26 04:57:15;;;;;;;19.77;15.00;;;8.40;99.90;;;;;;5047908;28;20444;-63
2021/10/26 04:59:42;;;;;;;19.80;15.97;;;8.40;99.90;;;;;;5050860;28;20971;-64
2021/10/26 05:02:09;;;;;;;22.70;15.70;;;8.50;99.90;;;;;;5051231;28;20451;-64
2021/10/26 05:04:37;;;;;;;19.73;15.10;;;8.50;99.90;;;;;;5049840;28;21040;-65
2021/10/26 05:07:04;;;;;;;17.30;15.40;;;8.50;99.90;;;;;;5049471;28;21023;-64
2021/10/26 05:09:31;;;;;;;16.97;14.67;;;8.50;99.90;;;;;;5049920;28;20444;-64
2021/10/26 05:11:58;;;;;;;26.20;15.43;;;8.50;99.90;;;;;;5050673;28;20447;-65
2021/10/26 05:14:24;;;;;;;19.60;15.83;;;8.50;99.90;;;;;;5049977;28;20471;-64
2021/10/26 05:16:53;;;;;;;19.80;15.80;;;8.50;99.90;;;;;;5049336;28;20539;-65
2021/10/26 05:19:21;;;;;;;17.67;15.50;;;8.50;99.90;;;;;;5050982;28;20574;-64
2021/10/26 05:21:49;;;;;;;17.60;15.87;;;8.50;99.90;;;;;;5051284;28;20440;-64
2021/10/26 05:24:17;;;;;;;20.40;14.73;;;8.50;99.90;;;;;;5051296;28;20448;-65
2021/10/26 05:26:44;;;;;;;18.10;15.70;;;8.50;99.90;;;;;;5051721;28;20468;-65
2021/10/26 05:29:11;;;;;;;17.23;15.03;;;8.50;99.90;;;;;;5051755;28;20440;-65
2021/10/26 05:31:39;;;;;;;19.53;15.60;;;8.40;99.90;;;;;;5051358;28;20823;-65
2021/10/26 05:34:06;;;;;;;16.67;14.37;;;8.30;99.90;;;;;;5052097;28;20448;-64
2021/10/26 05:36:33;;;;;;;17.50;15.10;;;8.30;99.90;;;;;;5051367;28;20824;-64
2021/10/26 05:39:02;;;;;;;16.43;14.33;;;8.30;99.90;;;;;;5051185;28;20535;-64
2021/10/26 05:41:29;;;;;;;17.40;15.03;;;8.20;99.90;;;;;;5051997;28;20448;-64
2021/10/26 05:43:56;;;;;;;19.40;14.60;;;8.20;99.90;;;;;;5051918;28;20440;-64
2021/10/26 05:46:23;;;;;;;17.00;15.00;;;8.20;99.90;;;;;;5051242;28;20993;-65
2021/10/26 05:48:50;;;;;;;19.70;16.40;;;8.20;99.90;;;;;;5051566;28;20481;-64
2021/10/26 05:51:16;;;;;;;19.00;14.73;;;8.10;99.90;;;;;;5051619;28;20446;-62
2021/10/26 05:53:43;;;;;;;19.53;15.50;;;8.10;99.90;;;;;;5051781;28;20444;-64
2021/10/26 05:56:11;;;;;;;20.00;15.80;;;8.10;99.90;;;;;;5051601;28;20578;-64
2021/10/26 05:58:38;;;;;;;19.17;16.07;;;8.10;99.90;;;;;;5051471;28;20440;-64
2021/10/26 06:01:05;;;;;;;22.57;16.23;;;8.00;99.90;;;;;;5051398;28;20452;-64
2021/10/26 06:03:32;;;;;;;18.03;15.10;;;8.00;99.90;;;;;;5051420;28;20444;-64
2021/10/26 06:05:59;;;;;;;19.53;16.57;;;7.90;99.90;;;;;;5051577;28;20835;-64
2021/10/26 06:08:27;;;;;;;22.10;17.93;;;7.90;99.90;;;;;;5051094;28;20487;-64
2021/10/26 06:11:00;;;;;;;18.17;15.90;;;7.90;99.90;;;;;;5050466;28;20604;-65
2021/10/26 06:13:31;;;;;;;19.43;16.43;;;7.80;99.90;;;;;;5051272;28;20483;-64
2021/10/26 06:15:57;;;;;;;21.03;16.60;;;7.80;99.90;;;;;;5051136;28;20464;-64
2021/10/26 06:18:24;;;;;;;21.57;16.60;;;7.90;99.90;;;;;;5050864;28;21010;-64
2021/10/26 06:20:51;;;;;;;23.10;17.87;;;7.90;99.90;;;;;;5051213;28;20448;-64
2021/10/26 06:23:18;;;;;;;19.03;16.10;;;7.90;99.90;;;;;;5051220;28;20450;-64
2021/10/26 06:25:45;;;;;;;18.30;15.97;;;7.80;99.90;;;;;;5051057;28;20503;-64
2021/10/26 06:28:12;;;;;;;20.57;17.10;;;7.80;99.90;;;;;;5050618;28;20997;-64
2021/10/26 06:30:40;;;;;;;20.47;17.70;;;7.90;99.90;;;;;;5050944;28;20543;-64
2021/10/26 06:33:07;;;;;;;20.63;18.03;;;7.90;99.90;;;;;;5051153;28;20834;-64
2021/10/26 06:35:34;;;;;;;20.77;18.13;;;8.00;99.90;;;;;;5050987;28;20487;-64
2021/10/26 06:38:01;;;;;;;23.67;18.20;;;8.10;99.90;;;;;;5050628;28;20448;-64
2021/10/26 06:40:28;;;;;;;19.83;17.83;;;8.20;99.90;;;;;;5050841;28;20451;-64
2021/10/26 06:42:55;;;;;;;20.70;17.70;;;8.30;99.90;;;;;;5050678;28;20498;-64
2021/10/26 06:45:22;;;;;;;21.43;16.80;;;8.40;99.90;;;;;;5050376;28;20468;-64
2021/10/26 06:47:50;;;;;;;18.77;16.87;;;8.40;99.90;;;;;;5050247;28;21009;-64
2021/10/26 06:50:17;;;;;;;19.30;16.27;;;8.40;99.90;;;;;;5050710;28;20476;-64
2021/10/26 06:52:44;;;;;;;21.13;17.17;;;8.40;99.90;;;;;;5050572;28;20444;-64
2021/10/26 06:55:17;;;;;;;26.40;17.80;;;8.40;99.90;;;;;;5050349;28;20978;-65
2021/10/26 06:57:45;;;;;;;18.27;16.40;;;8.50;99.90;;;;;;5050146;28;20820;-64
2021/10/26 07:00:13;;;;;;;18.87;16.83;;;8.50;99.90;;;;;;5050564;28;20555;-65
2021/10/26 07:02:46;;;;;;;22.37;16.33;;;8.60;99.90;;;;;;5050554;28;20455;-64
2021/10/26 07:05:16;;;;;;;18.83;16.80;;;8.60;99.90;;;;;;5050426;28;20460;-64
2021/10/26 07:07:42;;;;;;;22.27;16.50;;;8.70;99.90;;;;;;5050019;28;20476;-64
2021/10/26 07:10:09;;;;;;;19.70;16.53;;;8.80;99.90;;;;;;5050261;28;20444;-64
2021/10/26 07:12:36;;;;;;;18.87;16.60;;;8.90;99.90;;;;;;5050458;28;20451;-65
2021/10/26 07:15:06;;;;;;;19.60;16.67;;;9.00;99.90;;;;;;5050326;28;20563;-64
2021/10/26 07:17:34;;;;;;;17.23;15.43;;;9.10;99.90;;;;;;5049950;28;20483;-65
2021/10/26 07:20:01;;;;;;;19.13;17.13;;;9.20;99.90;;;;;;5050147;28;20985;-64
2021/10/26 07:22:29;;;;;;;19.90;17.77;;;9.30;99.90;;;;;;5050112;28;20514;-64
2021/10/26 07:24:58;;;;;;;24.37;17.07;;;9.30;99.90;;;;;;5050031;28;20490;-64
2021/10/26 07:27:26;;;;;;;22.07;17.27;;;9.40;99.90;;;;;;5049893;28;20543;-64
2021/10/26 07:29:53;;;;;;;19.33;15.80;;;9.40;99.90;;;;;;5050344;28;20472;-64
2021/10/26 07:32:20;;;;;;;16.93;15.10;;;9.40;99.90;;;;;;5050263;28;20527;-64
2021/10/26 07:34:47;;;;;;;18.50;16.43;;;9.50;99.90;;;;;;5050132;28;20947;-64
2021/10/26 07:37:15;;;;;;;20.00;15.53;;;9.50;99.90;;;;;;5049585;28;20444;-64
2021/10/26 07:39:47;;;;;;;18.50;16.57;;;9.50;99.90;;;;;;5049928;28;20510;-64
2021/10/26 07:42:16;;;;;;;21.13;16.70;;;9.40;99.90;;;;;;5049869;28;20448;-64
2021/10/26 07:44:42;;;;;;;20.03;16.13;;;9.50;99.90;;;;;;5049857;28;20474;-65
2021/10/26 07:47:09;;;;;;;18.33;16.43;;;9.50;99.90;;;;;;5049479;28;21181;-64
2021/10/26 07:49:37;;;;;;;19.50;17.40;;;9.60;99.90;;;;;;5049651;28;20998;-65
2021/10/26 07:52:06;;;;;;;21.10;15.90;;;9.90;99.90;;;;;;5049877;28;20509;-64
2021/10/26 07:54:33;;;;;;;18.20;16.30;;;10.20;99.90;;;;;;5049590;28;20504;-65
2021/10/26 07:57:01;;;;;;;16.90;15.10;;;10.40;99.90;;;;;;5049307;28;20458;-65
2021/10/26 07:59:28;;;;;;;18.33;15.70;;;10.60;99.90;;;;;;5049727;28;20475;-64
2021/10/26 08:01:55;;;;;;;17.73;15.87;;;10.70;99.90;;;;;;5049548;28;20973;-65
2021/10/26 08:04:22;;;;;;;15.90;14.30;;;10.80;99.90;;;;;;5049352;28;20454;-65
2021/10/26 08:06:49;;;;;;;17.30;15.10;;;11.00;99.90;;;;;;5049384;28;20459;-64
2021/10/26 08:09:16;;;;;;;16.43;14.83;;;11.10;99.90;;;;;;5049508;28;20853;-65
2021/10/26 08:11:44;;;;;;;17.27;14.50;;;11.30;99.90;;;;;;5049343;28;20448;-64
2021/10/26 08:14:12;;;;;;;18.23;14.33;;;11.40;99.90;;;;;;5049286;28;20451;-65
2021/10/26 08:16:39;;;;;;;17.70;15.83;;;11.40;99.90;;;;;;5049265;28;20444;-64
2021/10/26 08:19:06;;;;;;;16.83;14.17;;;11.50;99.90;;;;;;5049463;28;20455;-64
2021/10/26 08:21:34;;;;;;;27.20;21.50;;;11.70;99.90;;;;;;5049739;28;20444;-64
2021/10/26 08:24:01;;;;;;;18.63;16.00;;;11.90;99.90;;;;;;5049244;28;20509;-64
2021/10/26 08:26:33;;;;;;;16.90;14.50;;;11.90;99.90;;;;;;5049001;28;20471;-64
2021/10/26 08:29:06;;;;;;;16.70;13.60;;;12.00;99.90;;;;;;5049361;28;20483;-64
2021/10/26 08:31:42;;;;;;;19.20;15.60;;;12.00;99.90;;;;;;5049237;28;20521;-64
2021/10/26 08:34:14;;;;;;;16.00;14.30;;;11.90;99.90;;;;;;5051462;28;21032;-64
2021/10/26 08:36:41;;;;;;;17.97;15.07;;;11.70;99.90;;;;;;5053006;28;20444;-64
2021/10/26 08:39:09;;;;;;;16.90;15.03;;;11.60;99.90;;;;;;5053329;28;20828;-64
2021/10/26 08:41:38;;;;;;;17.50;14.00;;;11.50;99.90;;;;;;5053033;28;21076;-64
2021/10/26 08:44:05;;;;;;;20.70;17.10;;;11.40;99.90;;;;;;5053094;28;20462;-64
2021/10/26 08:46:36;;;;;;;15.07;13.07;;;11.40;99.90;;;;;;5052761;28;20443;-64
2021/10/26 08:49:03;;;;;;;17.37;14.83;;;11.50;99.90;;;;;;5053130;28;20479;-64
2021/10/26 08:51:29;;;;;;;14.90;13.40;;;11.60;99.90;;;;;;5053102;28;20452;-64
2021/10/26 08:53:57;;;;;;;13.80;12.30;;;11.90;99.90;;;;;;5053075;28;20660;-65
2021/10/26 08:56:25;;;;;;;16.70;14.80;;;12.20;99.90;;;;;;5052460;28;20470;-65
2021/10/26 08:58:55;;;;;;;13.67;12.23;;;12.50;99.90;;;;;;5052881;28;20472;-65
2021/10/26 09:01:22;;;;;;;13.10;11.70;;;12.80;99.90;;;;;;5052985;28;20444;-65
2021/10/26 09:03:52;;;;;;;15.30;13.33;;;12.90;99.90;;;;;;5052866;28;20545;-65
2021/10/26 09:06:25;;;;;;;14.50;12.33;;;13.20;99.90;;;;;;5052443;28;20478;-64
2021/10/26 09:08:55;;;;;;;14.07;12.57;;;13.30;99.90;;;;;;5052720;28;20475;-65
2021/10/26 09:11:25;;;;;;;13.60;12.13;;;13.50;99.90;;;;;;5052488;28;20451;-65
2021/10/26 09:19:27;;;;;;;13.50;12.10;;;14.40;99.90;;;;;;5052250;28;20436;-65
2021/10/26 09:21:57;;;;;;;13.37;11.93;;;14.90;99.90;;;;;;5052815;28;20440;-65
2021/10/26 09:24:25;;;;;;;12.03;10.83;;;15.20;99.90;;;;;;5052361;28;21287;-65
2021/10/26 09:26:54;;;;;;;14.47;11.60;;;15.30;99.90;;;;;;5052157;28;20468;-65
2021/10/26 09:29:38;;;;;;;14.33;12.93;;;15.30;99.90;;;;;;5052500;28;20475;-65
2021/10/26 09:32:07;;;;;;;12.53;11.33;;;15.30;99.90;;;;;;5052304;28;20440;-65
2021/10/26 09:34:41;;;;;;;12.83;11.53;;;15.60;99.90;;;;;;5052063;28;20480;-65
2021/10/26 09:37:08;;;;;;;12.90;11.67;;;15.80;99.90;;;;;;5051985;28;20942;-65
2021/10/26 09:39:35;;;;;;;12.40;11.30;;;15.90;99.90;;;;;;5052178;28;20976;-65
2021/10/26 09:42:08;;;;;;;13.70;11.17;;;15.70;99.90;;;;;;5052112;28;20976;-65
2021/10/26 09:44:44;;;;;;;14.33;12.70;;;15.80;99.90;;;;;;5052218;28;20464;-65
2021/10/26 09:47:14;;;;;;;13.10;11.53;;;16.00;99.90;;;;;;5052304;28;20454;-66
2021/10/26 09:49:45;;;;;;;16.30;11.83;;;16.20;99.90;;;;;;5052434;28;20515;-66
2021/10/26 09:52:15;;;;;;;13.40;11.47;;;16.10;99.90;;;;;;5052199;28;20807;-65
2021/10/26 09:54:44;;;;;;;18.60;13.13;;;16.00;99.90;;;;;;5052787;28;20463;-65
2021/10/26 09:57:13;;;;;;;14.50;13.00;;;15.80;99.90;;;;;;5052055;28;20501;-68
2021/10/26 09:59:48;;;;;;;13.77;12.03;;;15.70;99.90;;;;;;5052289;28;20448;-64
2021/10/26 10:02:23;;;;;;;12.70;11.50;;;15.60;99.90;;;;;;5051977;28;20456;-64
2021/10/26 10:04:52;;;;;;;12.50;11.07;;;15.60;99.90;;;;;;5051658;28;20463;-64
2021/10/26 10:07:30;;;;;;;19.80;12.67;;;15.90;99.90;;;;;;5051315;28;20501;-64
2021/10/26 10:09:59;;;;;;;14.03;12.53;;;16.10;99.90;;;;;;5051436;28;20479;-64
2021/10/26 10:12:27;;;;;;;14.37;11.23;;;16.40;99.90;;;;;;5051345;28;20472;-64
2021/10/26 10:14:55;;;;;;;16.50;13.47;;;16.60;99.90;;;;;;5051588;28;20463;-65
2021/10/26 10:17:24;;;;;;;13.50;12.10;;;16.80;99.90;;;;;;5051183;28;20448;-67
2021/10/26 10:19:53;;;;;;;12.50;11.20;;;16.90;99.90;;;;;;5042409;28;20448;-64
2021/10/26 10:22:23;;;;;;;11.57;10.47;;;17.00;99.90;;;;;;5050191;28;20452;-65
2021/10/26 10:24:54;;;;;;;11.90;9.60;;;17.70;99.90;;;;;;5051328;28;20472;-65
2021/10/26 10:27:22;;;;;;;12.93;11.43;;;18.80;99.90;;;;;;5051107;28;20527;-64
2021/10/26 10:29:50;;;;;;;10.80;9.70;;;19.90;99.90;;;;;;5051326;28;20476;-64
2021/10/26 10:32:17;;;;;;;11.00;8.03;;;19.30;99.90;;;;;;5051019;28;20498;-64
2021/10/26 10:34:45;;;;;;;9.40;8.13;;;19.10;99.90;;;;;;5051104;28;20475;-64
2021/10/26 10:37:14;;;;;;;9.73;8.17;;;19.10;99.90;;;;;;5050615;28;20961;-64
2021/10/26 10:39:43;;;;;;;8.70;7.57;;;19.60;99.90;;;;;;5051189;28;20450;-64
2021/10/26 10:42:22;;;;;;;13.23;7.60;;;19.30;99.90;;;;;;5051038;28;20467;-64
2021/10/26 10:44:49;;;;;;;14.60;9.03;;;19.00;99.90;;;;;;5050697;28;20467;-64
2021/10/26 10:47:37;;;;;;;10.57;8.70;;;18.60;99.90;;;;;;5051046;28;20562;-64
2021/10/26 10:50:22;;;;;;;8.40;7.50;;;18.10;99.90;;;;;;5051157;28;20483;-64
2021/10/26 10:53:04;;;;;;;23.93;8.50;;;17.70;99.90;;;;;;5051131;28;20827;-64
2021/10/26 10:55:31;;;;;;;8.00;6.10;;;17.20;99.90;;;;;;5050885;28;20462;-64
2021/10/26 10:58:22;;;;;;;13.17;6.50;;;17.00;99.90;;;;;;5050498;28;20457;-64
2021/10/26 11:00:50;;;;;;;7.57;6.10;;;17.10;99.90;;;;;;5050858;28;20446;-64
2021/10/26 11:03:30;;;;;;;6.80;5.60;;;17.10;99.90;;;;;;5050525;28;20456;-64
2021/10/26 11:05:57;;;;;;;9.67;5.50;;;17.20;99.90;;;;;;5050736;28;20464;-64
2021/10/26 11:08:47;;;;;;;7.33;5.63;;;17.40;99.90;;;;;;5050022;28;20448;-64
2021/10/26 11:11:16;;;;;;;6.50;5.40;;;17.70;99.90;;;;;;5050550;28;20494;-64
2021/10/26 11:13:44;;;;;;;6.63;5.20;;;17.90;99.90;;;;;;5050452;28;20557;-64
2021/10/26 11:16:13;;;;;;;6.47;4.77;;;17.90;99.90;;;;;;5050121;28;21010;-64
2021/10/26 11:18:44;;;;;;;5.07;4.30;;;17.70;99.90;;;;;;5050205;28;21272;-64
2021/10/26 11:21:33;;;;;;;6.20;4.17;;;17.90;99.90;;;;;;5050201;28;20956;-64
2021/10/26 11:24:07;;;;;;;5.50;4.07;;;18.00;99.90;;;;;;5050387;28;20821;-64
2021/10/26 11:26:36;;;;;;;6.17;3.10;;;18.10;99.90;;;;;;5049686;28;20444;-64
2021/10/26 11:29:04;;;;;;;7.20;3.30;;;18.10;99.90;;;;;;5050438;28;20490;-64
2021/10/26 11:31:43;;;;;;;7.03;3.10;;;18.40;99.90;;;;;;5050708;28;20452;-64
2021/10/26 11:34:19;;;;;;;4.63;2.80;;;18.50;99.90;;;;;;5050503;28;20463;-64
2021/10/26 11:36:57;;;;;;;4.43;2.77;;;18.20;99.90;;;;;;5050200;28;20526;-64
2021/10/26 11:39:25;;;;;;;5.03;2.83;;;18.00;99.90;;;;;;5050425;28;20450;-64
2021/10/26 11:41:52;;;;;;;4.90;2.73;;;17.40;99.90;;;;;;5050078;28;20451;-64
2021/10/26 11:44:21;;;;;;;4.70;2.87;;;17.10;99.90;;;;;;5050227;28;20440;-64
2021/10/26 11:46:50;;;;;;;5.00;2.93;;;17.00;99.90;;;;;;5049594;28;20444;-65
2021/10/26 11:49:21;;;;;;;4.23;2.97;;;16.90;99.90;;;;;;5049683;28;20471;-63
2021/10/26 11:51:50;;;;;;;6.30;3.50;;;16.60;99.90;;;;;;5049976;28;20879;-63
2021/10/26 11:54:20;;;;;;;5.23;3.43;;;16.50;99.90;;;;;;5049824;28;20498;-63
2021/10/26 11:56:49;;;;;;;3.90;2.43;;;16.40;99.90;;;;;;5049964;28;20535;-63
2021/10/26 11:59:18;;;;;;;6.03;3.50;;;16.30;99.90;;;;;;5049678;28;20934;-63
2021/10/26 12:01:50;;;;;;;7.17;4.10;;;16.20;99.90;;;;;;5049580;28;20459;-63
2021/10/26 12:04:19;;;;;;;5.90;4.10;;;16.10;99.90;;;;;;5049812;28;20475;-63
2021/10/26 12:06:48;;;;;;;5.53;3.23;;;16.10;99.90;;;;;;5049207;28;20450;-63
2021/10/26 12:09:16;;;;;;;5.60;2.90;;;16.20;99.90;;;;;;5052136;28;20490;-63
2021/10/26 12:11:45;;;;;;;5.97;3.50;;;16.20;99.90;;;;;;5053663;28;20535;-63
2021/10/26 12:14:25;;;;;;;4.40;3.17;;;16.20;99.90;;;;;;5053546;28;20451;-63
2021/10/26 12:17:19;;;;;;;4.47;3.20;;;16.20;99.90;;;;;;5053447;28;20447;-63
2021/10/26 12:19:52;;;;;;;5.83;3.73;;;16.20;99.90;;;;;;5039787;28;20868;-63
2021/10/26 12:22:25;;;;;;;6.23;3.80;;;16.20;99.90;;;;;;5053610;28;20535;-63
2021/10/26 12:24:59;;;;;;;6.53;3.47;;;16.20;99.90;;;;;;5053510;28;20459;-63
2021/10/26 12:27:30;;;;;;;6.10;3.57;;;16.20;99.90;;;;;;5053454;28;20436;-63
2021/10/26 12:30:08;;;;;;;5.20;3.57;;;16.30;99.90;;;;;;5053745;28;20572;-63
2021/10/26 12:32:35;;;;;;;6.90;3.67;;;16.40;99.90;;;;;;5053576;28;20534;-63
2021/10/26 12:35:03;;;;;;;5.80;3.30;;;16.40;99.90;;;;;;5053122;28;20471;-63
2021/10/26 12:37:32;;;;;;;6.27;3.43;;;16.50;99.90;;;;;;5052781;28;20462;-63
2021/10/26 12:40:01;;;;;;;5.97;3.63;;;16.60;99.90;;;;;;5053105;28;20440;-63
2021/10/26 12:42:33;;;;;;;6.20;3.27;;;16.80;99.90;;;;;;5053309;28;20543;-63
2021/10/26 12:45:03;;;;;;;6.83;3.80;;;17.10;99.90;;;;;;5052991;28;20472;-63
2021/10/26 12:47:33;;;;;;;7.70;3.50;;;16.90;99.90;;;;;;5052718;28;20451;-63
2021/10/26 12:50:02;;;;;;;5.90;4.17;;;16.80;99.90;;;;;;5053136;28;20497;-63
2021/10/26 12:52:29;;;;;;;5.10;3.13;;;16.50;99.90;;;;;;5053190;28;20478;-63